Time;durP1;ratioP1;P1;durP2;ratioP2;P2;SDS_P1;SDS_P2;PMS_P1;PMS_P2;Temp;Humidity;BMP_temperature;BMP_pressure;BME280_temperature;BME280_humidity;BME280_pressure;Samples;Min_cycle;Max_cycle;Signal;HPM_P1;HPM_P2
2021/09/18 00:01:25;;;;;;;6.10;4.35;;;;;;;;;;5050308;28;20021;-84
2021/09/18 00:03:50;;;;;;;5.93;3.90;;;;;;;;;;5051439;28;20028;-84
2021/09/18 00:06:15;;;;;;;5.87;3.40;;;;;;;;;;5051939;28;20016;-84
2021/09/18 00:08:41;;;;;;;6.00;3.37;;;;;;;;;;5050010;28;20476;-84
2021/09/18 00:11:06;;;;;;;4.32;3.20;;;;;;;;;;5051880;28;20266;-85
2021/09/18 00:13:32;;;;;;;4.40;4.00;;;;;;;;;;5050388;28;20017;-84
2021/09/18 00:15:57;;;;;;;4.88;3.42;;;;;;;;;;5051422;28;20404;-84
2021/09/18 00:18:23;;;;;;;3.72;3.13;;;;;;;;;;5052055;28;20017;-84
2021/09/18 00:20:48;;;;;;;5.60;3.93;;;;;;;;;;5051523;28;20032;-84
2021/09/18 00:23:13;;;;;;;5.22;2.83;;;;;;;;;;5050242;28;21144;-83
2021/09/18 00:25:39;;;;;;;4.55;2.45;;;;;;;;;;5050794;28;20078;-84
2021/09/18 00:28:04;;;;;;;5.32;3.55;;;;;;;;;;5051946;28;20064;-84
2021/09/18 00:30:29;;;;;;;4.03;2.20;;;;;;;;;;5050463;28;20025;-84
2021/09/18 00:32:55;;;;;;;6.28;2.85;;;;;;;;;;5051695;28;20024;-84
2021/09/18 00:35:20;;;;;;;2.53;1.85;;;;;;;;;;5051908;28;20025;-84
2021/09/18 00:37:47;;;;;;;6.80;2.80;;;;;;;;;;5049351;28;20028;-83
2021/09/18 00:40:12;;;;;;;6.00;3.08;;;;;;;;;;5048839;28;20013;-84
2021/09/18 00:42:37;;;;;;;7.03;3.80;;;;;;;;;;5032288;28;20030;-83
2021/09/18 00:45:02;;;;;;;5.45;3.90;;;;;;;;;;5051927;28;20032;-84
2021/09/18 00:47:28;;;;;;;8.07;4.00;;;;;;;;;;5051860;28;20024;-84
2021/09/18 00:49:53;;;;;;;7.47;3.47;;;;;;;;;;5050316;28;20025;-84
2021/09/18 00:52:21;;;;;;;5.50;4.27;;;;;;;;;;5049076;28;20256;-84
2021/09/18 00:54:47;;;;;;;5.30;3.78;;;;;;;;;;5051427;28;20267;-84
2021/09/18 00:57:13;;;;;;;7.43;4.60;;;;;;;;;;5049697;28;20050;-84
2021/09/18 00:59:38;;;;;;;8.75;4.00;;;;;;;;;;5049971;28;20029;-84
2021/09/18 01:02:03;;;;;;;6.77;5.53;;;;;;;;;;5050332;28;20113;-84
2021/09/18 01:04:28;;;;;;;7.10;3.90;;;;;;;;;;5050791;28;20734;-84
2021/09/18 01:06:54;;;;;;;5.37;3.17;;;;;;;;;;5049163;28;20484;-84
2021/09/18 01:09:19;;;;;;;6.97;5.00;;;;;;;;;;5051006;28;20316;-84
2021/09/18 01:11:44;;;;;;;5.20;2.92;;;;;;;;;;5049559;28;20354;-85
2021/09/18 01:14:10;;;;;;;6.87;3.17;;;;;;;;;;5049423;28;20025;-84
2021/09/18 01:16:35;;;;;;;5.43;2.77;;;;;;;;;;5049212;28;20295;-84
2021/09/18 01:19:00;;;;;;;5.45;4.53;;;;;;;;;;5050698;28;20290;-84
2021/09/18 01:21:25;;;;;;;10.48;5.32;;;;;;;;;;5050975;28;20021;-84
2021/09/18 01:23:50;;;;;;;10.00;6.50;;;;;;;;;;5051270;28;20021;-84
2021/09/18 01:26:16;;;;;;;6.63;5.07;;;;;;;;;;5049162;28;20017;-84
2021/09/18 01:28:41;;;;;;;9.33;6.10;;;;;;;;;;5050176;28;20110;-84
2021/09/18 01:31:07;;;;;;;9.88;6.00;;;;;;;;;;5049915;28;20263;-84
2021/09/18 01:33:32;;;;;;;6.80;4.93;;;;;;;;;;5050032;28;20013;-84
2021/09/18 01:35:57;;;;;;;16.17;10.25;;;;;;;;;;5049476;28;20017;-84
2021/09/18 01:38:22;;;;;;;16.83;9.47;;;;;;;;;;5050628;28;20013;-84
2021/09/18 01:40:48;;;;;;;12.13;7.68;;;;;;;;;;5050188;28;20291;-84
2021/09/18 01:43:14;;;;;;;3.92;3.55;;;;;;;;;;5050658;28;20045;-84
2021/09/18 01:45:40;;;;;;;4.60;4.07;;;;;;;;;;5048618;28;20021;-84
2021/09/18 01:48:06;;;;;;;8.70;4.70;;;;;;;;;;5049088;28;20024;-84
2021/09/18 01:50:35;;;;;;;6.80;2.72;;;;;;;;;;5050551;28;20052;-84
2021/09/18 01:53:02;;;;;;;5.88;3.50;;;;;;;;;;5048803;28;20025;-84
2021/09/18 01:55:28;;;;;;;2.80;2.53;;;;;;;;;;5051329;28;20029;-84
2021/09/18 01:57:54;;;;;;;7.60;5.85;;;;;;;;;;5053043;28;20099;-84
2021/09/18 02:00:19;;;;;;;3.10;2.78;;;;;;;;;;5048958;28;20048;-84
2021/09/18 02:02:45;;;;;;;2.88;2.67;;;;;;;;;;5041231;28;20013;-84
2021/09/18 02:05:11;;;;;;;7.78;4.78;;;;;;;;;;5049383;28;20408;-84
2021/09/18 02:07:36;;;;;;;3.63;3.30;;;;;;;;;;5050885;28;20041;-84
2021/09/18 02:10:02;;;;;;;4.88;3.80;;;;;;;;;;5049316;28;20112;-84
2021/09/18 02:12:27;;;;;;;4.95;3.92;;;;;;;;;;5050694;28;20044;-84
2021/09/18 02:14:53;;;;;;;4.65;3.22;;;;;;;;;;5048272;28;20120;-85
2021/09/18 02:17:18;;;;;;;3.95;3.47;;;;;;;;;;5049526;28;20779;-84
2021/09/18 02:19:43;;;;;;;4.28;2.95;;;;;;;;;;5049033;28;20058;-84
2021/09/18 02:22:08;;;;;;;5.83;4.60;;;;;;;;;;5049203;28;20121;-84
2021/09/18 02:24:34;;;;;;;4.70;3.05;;;;;;;;;;5051535;28;20393;-85
2021/09/18 02:26:59;;;;;;;4.75;3.80;;;;;;;;;;5054635;28;20044;-84
2021/09/18 02:29:24;;;;;;;7.37;3.43;;;;;;;;;;5053036;28;20032;-84
2021/09/18 02:31:49;;;;;;;5.10;4.63;;;;;;;;;;5053726;28;20260;-84
2021/09/18 02:34:14;;;;;;;4.93;3.97;;;;;;;;;;5052366;28;20305;-84
2021/09/18 02:36:40;;;;;;;6.47;5.03;;;;;;;;;;5052141;28;20256;-85
2021/09/18 02:39:05;;;;;;;5.40;3.30;;;;;;;;;;5053927;28;20021;-84
2021/09/18 02:41:30;;;;;;;7.57;4.97;;;;;;;;;;5054706;28;20256;-84
2021/09/18 02:43:55;;;;;;;5.60;4.57;;;;;;;;;;5053484;28;20017;-84
2021/09/18 02:46:20;;;;;;;10.23;7.10;;;;;;;;;;5045671;28;20021;-84
2021/09/18 02:48:45;;;;;;;2.67;2.43;;;;;;;;;;5032156;28;20307;-84
2021/09/18 02:51:11;;;;;;;8.70;4.87;;;;;;;;;;5039010;28;20283;-84
2021/09/18 02:53:36;;;;;;;4.68;4.10;;;;;;;;;;5052999;28;20268;-84
2021/09/18 02:56:02;;;;;;;4.20;2.90;;;;;;;;;;5054135;28;20055;-84
2021/09/18 02:58:27;;;;;;;5.85;4.50;;;;;;;;;;5052909;28;20480;-84
2021/09/18 03:00:52;;;;;;;4.75;4.05;;;;;;;;;;5052473;28;20077;-84
2021/09/18 03:03:18;;;;;;;2.78;2.58;;;;;;;;;;5053729;28;20017;-84
2021/09/18 03:05:43;;;;;;;5.20;4.70;;;;;;;;;;5052633;28;20479;-84
2021/09/18 03:08:08;;;;;;;9.10;5.60;;;;;;;;;;5054702;28;20060;-84
2021/09/18 03:10:33;;;;;;;6.50;4.40;;;;;;;;;;5051357;28;20025;-84
2021/09/18 03:12:58;;;;;;;6.27;4.60;;;;;;;;;;5051998;28;20277;-84
2021/09/18 03:15:24;;;;;;;7.83;4.33;;;;;;;;;;5053566;28;20028;-84
2021/09/18 03:17:49;;;;;;;5.97;3.80;;;;;;;;;;5051250;28;20306;-84
2021/09/18 03:20:14;;;;;;;5.57;5.00;;;;;;;;;;5053486;28;20048;-84
2021/09/18 03:22:39;;;;;;;6.78;4.38;;;;;;;;;;5051953;28;20755;-84
2021/09/18 03:25:05;;;;;;;5.57;3.42;;;;;;;;;;5052157;28;20017;-84
2021/09/18 03:27:30;;;;;;;5.57;4.60;;;;;;;;;;5051173;28;20104;-84
2021/09/18 03:29:56;;;;;;;5.90;4.77;;;;;;;;;;5052242;28;20115;-84
2021/09/18 03:32:21;;;;;;;6.27;5.07;;;;;;;;;;5053286;28;20302;-84
2021/09/18 03:34:46;;;;;;;6.15;4.00;;;;;;;;;;5053065;28;20305;-85
2021/09/18 03:37:11;;;;;;;4.70;2.90;;;;;;;;;;5052456;28;20025;-85
2021/09/18 03:39:37;;;;;;;6.90;4.38;;;;;;;;;;5050725;28;20166;-83
2021/09/18 03:42:02;;;;;;;7.00;3.47;;;;;;;;;;5052975;28;20021;-84
2021/09/18 03:44:27;;;;;;;4.07;3.00;;;;;;;;;;5052553;28;20028;-84
2021/09/18 03:46:54;;;;;;;6.53;3.00;;;;;;;;;;5054027;28;20028;-84
2021/09/18 03:49:19;;;;;;;6.20;4.10;;;;;;;;;;5052228;28;20790;-84
2021/09/18 03:51:44;;;;;;;5.13;4.18;;;;;;;;;;5055747;28;20108;-83
2021/09/18 03:54:09;;;;;;;7.57;4.77;;;;;;;;;;5050790;28;20059;-85
2021/09/18 03:56:35;;;;;;;5.87;2.67;;;;;;;;;;5051699;28;20339;-84
2021/09/18 03:59:00;;;;;;;7.63;5.60;;;;;;;;;;5051041;28;21076;-84
2021/09/18 04:01:25;;;;;;;7.18;5.78;;;;;;;;;;5051301;28;20019;-84
2021/09/18 04:03:50;;;;;;;10.73;6.43;;;;;;;;;;5055191;28;20069;-84
2021/09/18 04:06:15;;;;;;;6.10;4.63;;;;;;;;;;5051746;28;20472;-84
2021/09/18 04:08:41;;;;;;;8.53;6.10;;;;;;;;;;5051821;28;20260;-84
2021/09/18 04:11:06;;;;;;;7.47;6.20;;;;;;;;;;5050720;28;20255;-84
2021/09/18 04:13:31;;;;;;;7.72;5.63;;;;;;;;;;5053534;28;20029;-84
2021/09/18 04:15:56;;;;;;;5.68;4.85;;;;;;;;;;5051598;28;20053;-84
2021/09/18 04:18:22;;;;;;;7.50;5.93;;;;;;;;;;5051443;28;20014;-84
2021/09/18 04:20:47;;;;;;;9.63;7.33;;;;;;;;;;5050758;28;20280;-84
2021/09/18 04:23:12;;;;;;;8.50;5.85;;;;;;;;;;5050528;28;20032;-84
2021/09/18 04:25:37;;;;;;;9.35;5.68;;;;;;;;;;5051380;28;20017;-84
2021/09/18 04:28:03;;;;;;;7.15;4.72;;;;;;;;;;5052025;28;20024;-84
2021/09/18 04:30:28;;;;;;;7.13;4.70;;;;;;;;;;5050497;28;20028;-84
2021/09/18 04:32:53;;;;;;;5.50;4.60;;;;;;;;;;5051129;28;20032;-84
2021/09/18 04:35:18;;;;;;;4.83;3.97;;;;;;;;;;5051399;28;20255;-84
2021/09/18 04:37:43;;;;;;;8.40;3.33;;;;;;;;;;5050890;28;20554;-84
2021/09/18 04:40:09;;;;;;;5.28;3.20;;;;;;;;;;5049944;28;20090;-84
2021/09/18 04:42:34;;;;;;;4.50;3.40;;;;;;;;;;5051559;28;20024;-84
2021/09/18 04:44:59;;;;;;;4.13;3.72;;;;;;;;;;5050624;28;20013;-84
2021/09/18 04:47:25;;;;;;;7.88;4.38;;;;;;;;;;5050460;28;20028;-84
2021/09/18 04:49:50;;;;;;;4.28;3.20;;;;;;;;;;5052858;28;20020;-84
2021/09/18 04:52:15;;;;;;;5.32;4.28;;;;;;;;;;5053872;28;20473;-84
2021/09/18 04:54:40;;;;;;;5.00;2.50;;;;;;;;;;5049480;28;20785;-84
2021/09/18 04:57:06;;;;;;;7.97;4.10;;;;;;;;;;5049948;28;20291;-84
2021/09/18 04:59:31;;;;;;;4.88;3.50;;;;;;;;;;5049882;28;20024;-84
2021/09/18 05:01:56;;;;;;;7.32;3.55;;;;;;;;;;5050755;28;20028;-84
2021/09/18 05:04:21;;;;;;;8.10;3.63;;;;;;;;;;5051320;28;20060;-84
2021/09/18 05:06:46;;;;;;;7.30;3.70;;;;;;;;;;5051404;28;20013;-84
2021/09/18 05:09:11;;;;;;;4.17;3.43;;;;;;;;;;5049478;28;20067;-84
2021/09/18 05:11:37;;;;;;;6.07;3.43;;;;;;;;;;5050795;28;20358;-84
2021/09/18 05:14:02;;;;;;;4.10;3.10;;;;;;;;;;5051447;28;20291;-84
2021/09/18 05:16:27;;;;;;;3.77;3.23;;;;;;;;;;5050895;28;20095;-84
2021/09/18 05:18:52;;;;;;;7.10;3.58;;;;;;;;;;5050455;28;20109;-84
2021/09/18 05:21:18;;;;;;;4.43;3.00;;;;;;;;;;5053784;28;20020;-84
2021/09/18 05:23:43;;;;;;;6.80;3.80;;;;;;;;;;5050345;28;20060;-84
2021/09/18 05:26:09;;;;;;;7.63;3.77;;;;;;;;;;5049162;28;20262;-84
2021/09/18 05:28:34;;;;;;;4.10;3.15;;;;;;;;;;5051155;28;20267;-84
2021/09/18 05:30:59;;;;;;;7.90;3.53;;;;;;;;;;5051808;28;20539;-84
2021/09/18 05:33:24;;;;;;;5.50;4.60;;;;;;;;;;5049721;28;20071;-84
2021/09/18 05:35:50;;;;;;;4.00;2.83;;;;;;;;;;5050013;28;20025;-84
2021/09/18 05:38:15;;;;;;;5.00;3.10;;;;;;;;;;5050332;28;20425;-84
2021/09/18 05:40:42;;;;;;;5.80;3.70;;;;;;;;;;5049303;28;20290;-84
2021/09/18 05:43:07;;;;;;;9.20;3.72;;;;;;;;;;5049141;28;20354;-84
2021/09/18 05:45:32;;;;;;;5.87;3.67;;;;;;;;;;5050114;28;20107;-84
2021/09/18 05:47:58;;;;;;;8.13;2.80;;;;;;;;;;5050745;28;20025;-85
2021/09/18 05:50:24;;;;;;;4.70;3.83;;;;;;;;;;5048929;28;20029;-84
2021/09/18 05:52:49;;;;;;;5.82;3.42;;;;;;;;;;5050706;28;20271;-84
2021/09/18 05:55:14;;;;;;;5.20;2.90;;;;;;;;;;5049872;28;20036;-84
2021/09/18 05:57:39;;;;;;;7.78;3.90;;;;;;;;;;5050386;28;20045;-84
2021/09/18 06:00:05;;;;;;;12.07;3.67;;;;;;;;;;5053336;28;20496;-85
2021/09/18 06:02:30;;;;;;;5.57;3.50;;;;;;;;;;5055839;28;20072;-84
2021/09/18 06:04:56;;;;;;;4.90;3.47;;;;;;;;;;5060431;28;20590;-84
2021/09/18 06:07:21;;;;;;;3.90;3.28;;;;;;;;;;5054473;28;20021;-84
2021/09/18 06:09:47;;;;;;;5.32;3.00;;;;;;;;;;5056857;28;20499;-84
2021/09/18 06:12:12;;;;;;;6.10;2.97;;;;;;;;;;5055498;28;20044;-84
2021/09/18 06:14:37;;;;;;;8.30;3.53;;;;;;;;;;5055267;28;20025;-84
2021/09/18 06:17:03;;;;;;;7.60;3.47;;;;;;;;;;5055516;28;20302;-84
2021/09/18 06:19:28;;;;;;;3.38;2.75;;;;;;;;;;5055517;28;20032;-84
2021/09/18 06:21:53;;;;;;;5.53;3.38;;;;;;;;;;5055029;28;20025;-84
2021/09/18 06:24:19;;;;;;;3.97;2.83;;;;;;;;;;5059384;28;20021;-84
2021/09/18 06:26:45;;;;;;;5.85;3.58;;;;;;;;;;5057002;28;20027;-84
2021/09/18 06:29:10;;;;;;;5.82;2.53;;;;;;;;;;5053247;28;20016;-84
2021/09/18 06:31:36;;;;;;;4.40;2.67;;;;;;;;;;5053157;28;20032;-84
2021/09/18 06:34:01;;;;;;;3.30;2.40;;;;;;;;;;5054737;28;20135;-84
2021/09/18 06:36:26;;;;;;;5.50;3.20;;;;;;;;;;5053562;28;20480;-84
2021/09/18 06:38:52;;;;;;;7.65;3.40;;;;;;;;;;5054419;28;20036;-84
2021/09/18 06:41:17;;;;;;;3.20;2.85;;;;;;;;;;5053972;28;20022;-84
2021/09/18 06:43:42;;;;;;;5.78;3.42;;;;;;;;;;5055368;28;20063;-84
2021/09/18 06:46:08;;;;;;;9.13;3.78;;;;;;;;;;5055893;28;20039;-84
2021/09/18 06:48:33;;;;;;;7.85;2.53;;;;;;;;;;5053810;28;20059;-84
2021/09/18 06:50:58;;;;;;;5.25;3.30;;;;;;;;;;5055714;28;20057;-84
2021/09/18 06:53:24;;;;;;;3.70;2.80;;;;;;;;;;5053491;28;20028;-84
2021/09/18 06:55:50;;;;;;;4.68;2.42;;;;;;;;;;5053608;28;20032;-85
2021/09/18 06:58:15;;;;;;;3.38;2.60;;;;;;;;;;5053756;28;20033;-84
2021/09/18 07:00:40;;;;;;;5.82;2.60;;;;;;;;;;5050523;28;20532;-84
2021/09/18 07:03:06;;;;;;;4.72;3.13;;;;;;;;;;5050248;28;20548;-84
2021/09/18 07:05:31;;;;;;;4.75;3.10;;;;;;;;;;5050403;28;20052;-84
2021/09/18 07:07:56;;;;;;;5.38;3.30;;;;;;;;;;5050445;28;20075;-85
2021/09/18 07:10:22;;;;;;;4.13;3.00;;;;;;;;;;5052512;28;20021;-84
2021/09/18 07:12:47;;;;;;;3.65;3.25;;;;;;;;;;5051843;28;20033;-84
2021/09/18 07:15:14;;;;;;;5.78;3.60;;;;;;;;;;5052715;28;20021;-84
2021/09/18 07:17:39;;;;;;;6.68;3.67;;;;;;;;;;5052277;28;20523;-85
2021/09/18 07:20:04;;;;;;;4.40;3.30;;;;;;;;;;5054673;28;20035;-84
2021/09/18 07:22:29;;;;;;;4.30;3.17;;;;;;;;;;5051271;28;20025;-84
2021/09/18 07:24:55;;;;;;;6.03;3.33;;;;;;;;;;5052623;28;20096;-85
2021/09/18 07:27:20;;;;;;;5.07;2.88;;;;;;;;;;5053003;28;20338;-85
2021/09/18 07:29:47;;;;;;;6.18;3.22;;;;;;;;;;5052288;28;20380;-84
2021/09/18 07:32:12;;;;;;;5.18;3.00;;;;;;;;;;5052928;28;20025;-84
2021/09/18 07:34:38;;;;;;;8.75;3.47;;;;;;;;;;5051576;28;20025;-85
2021/09/18 07:37:03;;;;;;;5.82;3.00;;;;;;;;;;5051894;28;20096;-84
2021/09/18 07:39:29;;;;;;;6.95;3.38;;;;;;;;;;5053023;28;20028;-84
2021/09/18 07:41:54;;;;;;;6.35;4.03;;;;;;;;;;5051681;28;20141;-84
2021/09/18 07:44:20;;;;;;;8.85;4.25;;;;;;;;;;5052948;28;20027;-85
2021/09/18 07:46:45;;;;;;;4.70;3.53;;;;;;;;;;5051104;28;20558;-85
2021/09/18 07:49:11;;;;;;;4.38;3.40;;;;;;;;;;5052030;28;20060;-85
2021/09/18 07:51:36;;;;;;;7.53;3.00;;;;;;;;;;5051783;28;20035;-85
2021/09/18 07:54:01;;;;;;;5.10;3.00;;;;;;;;;;5051926;28;20357;-84
2021/09/18 07:56:26;;;;;;;4.00;2.97;;;;;;;;;;5051658;28;20032;-84
2021/09/18 07:58:54;;;;;;;7.00;3.47;;;;;;;;;;5050925;28;20028;-84
2021/09/18 08:01:20;;;;;;;3.10;2.72;;;;;;;;;;5052888;28;20021;-84
2021/09/18 08:03:45;;;;;;;3.90;3.42;;;;;;;;;;5051117;28;20017;-84
2021/09/18 08:06:10;;;;;;;9.33;3.50;;;;;;;;;;5052728;28;20043;-84
2021/09/18 08:08:35;;;;;;;3.92;3.17;;;;;;;;;;5052950;28;20259;-85
2021/09/18 08:11:01;;;;;;;4.97;3.10;;;;;;;;;;5052865;28;20380;-85
2021/09/18 08:13:26;;;;;;;4.93;3.03;;;;;;;;;;5053041;28;20267;-85
2021/09/18 08:15:51;;;;;;;5.57;2.72;;;;;;;;;;5052578;28;20464;-84
2021/09/18 08:18:16;;;;;;;9.23;3.50;;;;;;;;;;5053019;28;20036;-84
2021/09/18 08:20:42;;;;;;;10.90;4.00;;;;;;;;;;5052235;28;20282;-84
2021/09/18 08:23:07;;;;;;;4.17;3.33;;;;;;;;;;5051195;28;20021;-84
2021/09/18 08:25:32;;;;;;;5.97;3.23;;;;;;;;;;5050198;28;20264;-85
2021/09/18 08:27:58;;;;;;;4.53;2.83;;;;;;;;;;5051221;28;20252;-84
2021/09/18 08:30:24;;;;;;;5.97;3.00;;;;;;;;;;5051371;28;20500;-84
2021/09/18 08:32:49;;;;;;;4.82;3.33;;;;;;;;;;5052289;28;20052;-84
2021/09/18 08:35:14;;;;;;;11.68;3.53;;;;;;;;;;5052229;28;20043;-84
2021/09/18 08:37:40;;;;;;;3.70;2.70;;;;;;;;;;5050721;28;20067;-84
2021/09/18 08:40:05;;;;;;;4.70;2.70;;;;;;;;;;5051769;28;20036;-84
2021/09/18 08:42:31;;;;;;;4.55;2.60;;;;;;;;;;5050453;28;20024;-84
2021/09/18 08:44:56;;;;;;;5.43;2.90;;;;;;;;;;5050333;28;20074;-85
2021/09/18 08:47:22;;;;;;;4.75;2.70;;;;;;;;;;5050647;28;20017;-84
2021/09/18 08:49:47;;;;;;;5.00;2.58;;;;;;;;;;5050272;28;20025;-84
2021/09/18 08:52:13;;;;;;;4.32;2.88;;;;;;;;;;5052404;28;20500;-85
2021/09/18 08:54:39;;;;;;;3.47;2.42;;;;;;;;;;5050357;28;20041;-84
2021/09/18 08:57:04;;;;;;;3.40;2.20;;;;;;;;;;5052232;28;20025;-84
2021/09/18 08:59:30;;;;;;;2.95;2.40;;;;;;;;;;5050227;28;20488;-85
2021/09/18 09:02:30;;;;;;;7.57;2.40;;;;;;;;;;5050357;28;20051;-85
2021/09/18 09:05:08;;;;;;;2.83;2.55;;;;;;;;;;5028853;28;20267;-84
2021/09/18 09:07:33;;;;;;;7.00;3.00;;;;;;;;;;5049889;28;20029;-85
2021/09/18 09:10:00;;;;;;;5.90;2.47;;;;;;;;;;5049885;28;20025;-85
2021/09/18 09:12:25;;;;;;;6.13;3.20;;;;;;;;;;5049251;28;20081;-84
2021/09/18 09:14:50;;;;;;;2.92;2.65;;;;;;;;;;5051577;28;20113;-84
2021/09/18 09:17:21;;;;;;;2.47;2.17;;;;;;;;;;5051332;28;20504;-85
2021/09/18 09:19:51;;;;;;;;;;;;;;;;;;5052339;28;20587;-84
2021/09/18 09:22:33;;;;;;;4.85;2.88;;;;;;;;;;5049218;28;19908;-84
2021/09/18 09:24:59;;;;;;;3.45;2.35;;;;;;;;;;5051001;28;20020;-84
2021/09/18 09:27:25;;;;;;;4.20;3.35;;;;;;;;;;5050173;28;20025;-84
2021/09/18 09:29:53;;;;;;;4.75;3.22;;;;;;;;;;5050117;28;20033;-84
2021/09/18 09:32:32;;;;;;;5.15;2.40;;;;;;;;;;5049473;28;20052;-85
2021/09/18 09:35:00;;;;;;;3.70;2.72;;;;;;;;;;5049804;28;20496;-85
2021/09/18 09:37:25;;;;;;;11.43;3.30;;;;;;;;;;5050896;28;20484;-84
2021/09/18 09:39:56;;;;;;;10.07;2.50;;;;;;;;;;5050631;28;20021;-85
2021/09/18 09:42:25;;;;;;;5.90;2.83;;;;;;;;;;5051142;28;20013;-84
2021/09/18 09:44:52;;;;;;;5.70;2.70;;;;;;;;;;5049235;28;20351;-84
2021/09/18 09:47:22;;;;;;;4.03;3.30;;;;;;;;;;5048611;28;20145;-84
2021/09/18 09:49:47;;;;;;;6.22;3.90;;;;;;;;;;5050109;28;20392;-84
2021/09/18 09:52:24;;;;;;;4.18;2.42;;;;;;;;;;5050736;28;20028;-84
2021/09/18 09:54:50;;;;;;;6.07;2.63;;;;;;;;;;5050622;28;20029;-84
2021/09/18 09:57:15;;;;;;;4.55;3.20;;;;;;;;;;5049528;28;20033;-84
2021/09/18 09:59:41;;;;;;;7.00;2.72;;;;;;;;;;5048848;28;20361;-84
2021/09/18 10:02:07;;;;;;;5.70;3.25;;;;;;;;;;5050043;28;20017;-84
2021/09/18 10:04:33;;;;;;;6.18;3.08;;;;;;;;;;5050204;28;20353;-84
2021/09/18 10:06:59;;;;;;;5.75;2.85;;;;;;;;;;5049246;28;20091;-85
2021/09/18 10:09:25;;;;;;;5.78;2.97;;;;;;;;;;5048867;28;20087;-85
2021/09/18 10:11:51;;;;;;;3.42;3.13;;;;;;;;;;5049190;28;20025;-84
2021/09/18 10:14:20;;;;;;;6.20;3.53;;;;;;;;;;5048364;28;20052;-84
2021/09/18 10:16:49;;;;;;;4.53;3.08;;;;;;;;;;5049961;28;20393;-85
2021/09/18 10:19:15;;;;;;;5.00;3.38;;;;;;;;;;5050327;28;20108;-85
2021/09/18 10:24:25;;;;;;;3.95;2.95;;;;;;;;;;5052563;28;20067;-85
2021/09/18 10:27:09;;;;;;;5.00;2.20;;;;;;;;;;5049598;28;20025;-85
2021/09/18 10:29:34;;;;;;;4.20;2.20;;;;;;;;;;5049984;28;20237;-85
2021/09/18 10:32:01;;;;;;;4.37;2.40;;;;;;;;;;5048778;28;20031;-85
2021/09/18 10:34:26;;;;;;;5.13;2.47;;;;;;;;;;5048814;28;20082;-85
2021/09/18 10:36:52;;;;;;;3.10;1.90;;;;;;;;;;5050820;28;20017;-85
2021/09/18 10:39:19;;;;;;;5.45;1.70;;;;;;;;;;5049377;28;20698;-85
2021/09/18 10:41:44;;;;;;;5.50;1.90;;;;;;;;;;5048146;28;20440;-85
2021/09/18 10:44:11;;;;;;;6.35;2.00;;;;;;;;;;5049915;28;20104;-85
2021/09/18 10:46:37;;;;;;;5.07;2.00;;;;;;;;;;5053710;28;20070;-85
2021/09/18 10:49:02;;;;;;;4.25;2.03;;;;;;;;;;5053375;28;20126;-85
2021/09/18 10:51:34;;;;;;;3.30;1.70;;;;;;;;;;5053014;28;20568;-84
2021/09/18 10:54:15;;;;;;;3.88;1.63;;;;;;;;;;5052489;28;20290;-85
2021/09/18 10:56:59;;;;;;;4.30;2.00;;;;;;;;;;5052382;28;20489;-84
2021/09/18 10:59:37;;;;;;;2.47;1.92;;;;;;;;;;5051715;28;20516;-85
2021/09/18 11:02:21;;;;;;;3.22;1.80;;;;;;;;;;5051436;28;20017;-85
2021/09/18 11:04:47;;;;;;;6.05;2.15;;;;;;;;;;5051841;28;20372;-85
2021/09/18 11:07:39;;;;;;;8.48;2.40;;;;;;;;;;5053278;28;20472;-85
2021/09/18 11:10:04;;;;;;;4.68;2.50;;;;;;;;;;5051417;28;20075;-84
2021/09/18 11:12:29;;;;;;;4.93;2.20;;;;;;;;;;5051488;28;20036;-84
2021/09/18 11:15:08;;;;;;;3.47;1.80;;;;;;;;;;5052889;28;20107;-84
2021/09/18 11:17:34;;;;;;;4.68;2.30;;;;;;;;;;5051656;28;20303;-84
2021/09/18 11:20:13;;;;;;;3.92;2.20;;;;;;;;;;5051867;28;20078;-85
2021/09/18 11:22:39;;;;;;;6.05;2.30;;;;;;;;;;5054141;28;20103;-85
2021/09/18 11:25:31;;;;;;;3.67;2.00;;;;;;;;;;5051273;28;20481;-85
2021/09/18 11:28:03;;;;;;;4.15;2.35;;;;;;;;;;5049070;28;20485;-85
2021/09/18 11:30:38;;;;;;;7.68;3.00;;;;;;;;;;5051803;28;20387;-85
2021/09/18 11:33:04;;;;;;;5.57;2.20;;;;;;;;;;5051253;28;20052;-85
2021/09/18 11:35:29;;;;;;;4.07;2.10;;;;;;;;;;5051452;28;20024;-84
2021/09/18 11:37:58;;;;;;;7.53;3.00;;;;;;;;;;5052401;28;20024;-85
2021/09/18 11:40:25;;;;;;;4.00;2.58;;;;;;;;;;5052270;28;20025;-85
2021/09/18 11:42:50;;;;;;;6.07;2.70;;;;;;;;;;5051192;28;20032;-84
2021/09/18 11:45:19;;;;;;;9.10;3.10;;;;;;;;;;5051283;28;20024;-84
2021/09/18 11:47:46;;;;;;;5.57;2.92;;;;;;;;;;5052257;28;20256;-84
2021/09/18 11:50:30;;;;;;;5.75;3.53;;;;;;;;;;5052463;28;20029;-84
2021/09/18 11:53:06;;;;;;;10.18;3.92;;;;;;;;;;5052589;28;20025;-85
2021/09/18 11:55:42;;;;;;;5.60;3.13;;;;;;;;;;5051517;28;20536;-84
2021/09/18 11:58:14;;;;;;;5.22;2.70;;;;;;;;;;5051541;28;20032;-84
2021/09/18 12:00:46;;;;;;;6.15;3.53;;;;;;;;;;5050983;28;20021;-84
2021/09/18 12:03:11;;;;;;;6.75;3.45;;;;;;;;;;5050865;28;20032;-84
2021/09/18 12:05:37;;;;;;;7.55;2.97;;;;;;;;;;5052313;28;20025;-84
2021/09/18 12:08:09;;;;;;;5.93;3.00;;;;;;;;;;5051875;28;20350;-84
2021/09/18 12:10:34;;;;;;;7.53;3.00;;;;;;;;;;5050588;28;20032;-84
2021/09/18 12:13:01;;;;;;;7.20;2.70;;;;;;;;;;5051003;28;20385;-85
2021/09/18 12:15:29;;;;;;;4.35;3.03;;;;;;;;;;5051151;28;20546;-85
2021/09/18 12:17:55;;;;;;;6.88;3.00;;;;;;;;;;5051897;28;20057;-85
2021/09/18 12:20:21;;;;;;;5.43;3.00;;;;;;;;;;5050171;28;20032;-85
2021/09/18 12:22:46;;;;;;;4.20;2.63;;;;;;;;;;5051907;28;20118;-85
2021/09/18 12:25:12;;;;;;;6.28;2.80;;;;;;;;;;5050480;28;20048;-85
2021/09/18 12:27:37;;;;;;;10.70;3.03;;;;;;;;;;5051368;28;20529;-84
2021/09/18 12:30:08;;;;;;;6.35;2.72;;;;;;;;;;5050219;28;20031;-84
2021/09/18 12:32:33;;;;;;;9.05;2.42;;;;;;;;;;5051772;28;20028;-84
2021/09/18 12:35:02;;;;;;;5.93;2.80;;;;;;;;;;5050740;28;20032;-84
2021/09/18 12:37:32;;;;;;;7.32;3.08;;;;;;;;;;5050319;28;20017;-84
2021/09/18 12:40:09;;;;;;;6.38;2.80;;;;;;;;;;5051206;28;20389;-85
2021/09/18 12:42:34;;;;;;;4.55;2.70;;;;;;;;;;5050161;28;20100;-85
2021/09/18 12:44:59;;;;;;;5.03;2.97;;;;;;;;;;5051724;28;20504;-85
2021/09/18 12:47:25;;;;;;;5.17;2.80;;;;;;;;;;5049918;28;20029;-85
2021/09/18 12:49:50;;;;;;;4.82;2.80;;;;;;;;;;5049978;28;20635;-84
2021/09/18 12:52:15;;;;;;;5.43;3.33;;;;;;;;;;5051019;28;20046;-84
2021/09/18 12:54:42;;;;;;;8.55;3.45;;;;;;;;;;5051358;28;20025;-85
2021/09/18 12:57:07;;;;;;;4.60;3.13;;;;;;;;;;5051091;28;20029;-85
2021/09/18 12:59:43;;;;;;;8.68;3.65;;;;;;;;;;5050832;28;20055;-84
2021/09/18 13:02:09;;;;;;;5.32;3.70;;;;;;;;;;5048680;28;20021;-85
2021/09/18 13:04:35;;;;;;;8.82;3.90;;;;;;;;;;5040686;28;20598;-85
2021/09/18 13:07:00;;;;;;;7.97;4.20;;;;;;;;;;5029197;28;20025;-85
2021/09/18 13:09:26;;;;;;;10.77;3.97;;;;;;;;;;5029071;28;20544;-85
2021/09/18 13:11:52;;;;;;;6.63;3.92;;;;;;;;;;5028923;28;20546;-85
2021/09/18 13:14:19;;;;;;;7.47;3.97;;;;;;;;;;5031810;28;20026;-85
2021/09/18 13:17:03;;;;;;;9.52;3.85;;;;;;;;;;5029623;28;20045;-85
2021/09/18 13:19:29;;;;;;;8.40;4.25;;;;;;;;;;5029870;28;20111;-85
2021/09/18 13:21:55;;;;;;;7.47;4.53;;;;;;;;;;5028642;28;20047;-85
2021/09/18 13:24:20;;;;;;;8.98;4.40;;;;;;;;;;5038623;28;20025;-85
2021/09/18 13:26:46;;;;;;;6.65;3.65;;;;;;;;;;5050235;28;20440;-85
2021/09/18 13:29:11;;;;;;;8.27;4.78;;;;;;;;;;5049854;28;20021;-85
2021/09/18 13:31:36;;;;;;;8.70;3.53;;;;;;;;;;5047621;28;20025;-84
2021/09/18 13:34:02;;;;;;;7.70;3.97;;;;;;;;;;5030732;28;20021;-85
2021/09/18 13:36:27;;;;;;;6.90;4.30;;;;;;;;;;5029821;28;20022;-85
2021/09/18 13:38:52;;;;;;;9.33;4.43;;;;;;;;;;5028396;28;20025;-85
2021/09/18 13:41:18;;;;;;;9.60;3.90;;;;;;;;;;5028581;28;20280;-85
2021/09/18 13:43:43;;;;;;;4.20;3.80;;;;;;;;;;5049944;28;20017;-85
2021/09/18 13:46:08;;;;;;;6.38;4.20;;;;;;;;;;5050241;28;20075;-85
2021/09/18 13:48:34;;;;;;;5.13;3.78;;;;;;;;;;5048281;28;20021;-85
2021/09/18 13:51:00;;;;;;;8.03;3.33;;;;;;;;;;5048915;28;20739;-85
2021/09/18 13:53:25;;;;;;;6.63;3.58;;;;;;;;;;5048276;28;20252;-85
2021/09/18 13:55:51;;;;;;;5.30;3.10;;;;;;;;;;5048667;28;20036;-85
2021/09/18 13:58:16;;;;;;;6.07;3.35;;;;;;;;;;5049616;28;20271;-85
2021/09/18 14:00:43;;;;;;;7.55;3.83;;;;;;;;;;5049677;28;20025;-85
2021/09/18 14:03:08;;;;;;;8.32;4.35;;;;;;;;;;5051585;28;20028;-85
2021/09/18 14:05:33;;;;;;;4.47;2.83;;;;;;;;;;5050161;28;20025;-85
2021/09/18 14:07:58;;;;;;;5.00;3.20;;;;;;;;;;5048326;28;20104;-85
2021/09/18 14:10:24;;;;;;;7.27;2.90;;;;;;;;;;5049280;28;20761;-85
2021/09/18 14:12:49;;;;;;;5.53;3.10;;;;;;;;;;5049327;28;20259;-85
2021/09/18 14:15:14;;;;;;;6.60;2.97;;;;;;;;;;5049408;28;20270;-85
2021/09/18 14:17:40;;;;;;;7.43;3.78;;;;;;;;;;5048789;28;20056;-85
2021/09/18 14:20:05;;;;;;;6.25;3.45;;;;;;;;;;5050643;28;20017;-85
2021/09/18 14:22:30;;;;;;;7.07;3.70;;;;;;;;;;5053037;28;20021;-85
2021/09/18 14:24:56;;;;;;;7.07;3.73;;;;;;;;;;5053590;28;20025;-85
2021/09/18 14:27:21;;;;;;;6.07;3.38;;;;;;;;;;5051988;28;20500;-86
2021/09/18 14:29:46;;;;;;;8.02;4.38;;;;;;;;;;5054007;28;20046;-86
2021/09/18 14:32:12;;;;;;;7.32;3.15;;;;;;;;;;5053888;28;20366;-85
2021/09/18 14:34:37;;;;;;;11.40;3.60;;;;;;;;;;5052224;28;20388;-86
2021/09/18 14:37:03;;;;;;;9.95;4.35;;;;;;;;;;5053314;28;20333;-85
2021/09/18 14:39:29;;;;;;;5.68;3.05;;;;;;;;;;5053336;28;20461;-85
2021/09/18 14:41:54;;;;;;;6.63;3.85;;;;;;;;;;5052132;28;20032;-85